Time;durP1;ratioP1;P1;durP2;ratioP2;P2;SDS_P1;SDS_P2;PMS_P1;PMS_P2;Temp;Humidity;BMP_temperature;BMP_pressure;BME280_temperature;BME280_humidity;BME280_pressure;Samples;Min_cycle;Max_cycle;Signal;HPM_P1;HPM_P2
2022/02/16 00:01:25;;;;;;;95.63;49.55;;;;;;;;;;6310672;28;20126;-69
2022/02/16 00:04:26;;;;;;;257.55;119.22;;;;;;;;;;6308062;28;20128;-68
2022/02/16 00:07:28;;;;;;;102.15;54.15;;;;;;;;;;6306610;28;20394;-68
2022/02/16 00:10:31;;;;;;;174.35;85.03;;;;;;;;;;6308335;28;20094;-70
2022/02/16 00:13:32;;;;;;;163.05;77.07;;;;;;;;;;6306529;28;20071;-68
2022/02/16 00:16:34;;;;;;;182.27;89.10;;;;;;;;;;6309931;28;20437;-67
2022/02/16 00:19:36;;;;;;;156.57;82.13;;;;;;;;;;6311514;28;20665;-67
2022/02/16 00:22:37;;;;;;;91.95;47.75;;;;;;;;;;6309597;28;20044;-67
2022/02/16 00:25:40;;;;;;;81.63;43.05;;;;;;;;;;6305035;28;20685;-67
2022/02/16 00:28:41;;;;;;;72.30;39.38;;;;;;;;;;6315108;28;20131;-70
2022/02/16 00:31:43;;;;;;;81.15;41.35;;;;;;;;;;6304850;28;20050;-67
2022/02/16 00:34:45;;;;;;;76.03;40.45;;;;;;;;;;6313570;28;20128;-67
2022/02/16 00:37:46;;;;;;;76.85;41.20;;;;;;;;;;6307592;28;20540;-66
2022/02/16 00:40:49;;;;;;;79.88;43.05;;;;;;;;;;6309080;28;20067;-69
2022/02/16 00:43:51;;;;;;;74.47;39.85;;;;;;;;;;6309482;28;20068;-67
2022/02/16 00:46:53;;;;;;;75.20;40.67;;;;;;;;;;6303104;28;20562;-67
2022/02/16 00:49:54;;;;;;;75.03;39.22;;;;;;;;;;6304419;28;20091;-67
2022/02/16 00:52:56;;;;;;;79.75;40.05;;;;;;;;;;6309459;28;20075;-67
2022/02/16 00:55:59;;;;;;;71.72;39.35;;;;;;;;;;6301940;28;20089;-67
2022/02/16 00:59:00;;;;;;;80.30;40.63;;;;;;;;;;6302001;28;20079;-68
2022/02/16 01:02:02;;;;;;;74.50;38.90;;;;;;;;;;6302796;28;20475;-68
2022/02/16 01:05:04;;;;;;;69.60;38.88;;;;;;;;;;6311017;28;20169;-66
2022/02/16 01:08:08;;;;;;;67.95;38.08;;;;;;;;;;6311420;28;20079;-66
2022/02/16 01:11:11;;;;;;;71.53;37.63;;;;;;;;;;6308158;28;20096;-66
2022/02/16 01:14:13;;;;;;;64.53;37.03;;;;;;;;;;6307033;28;20106;-67
2022/02/16 01:17:15;;;;;;;69.65;38.90;;;;;;;;;;6307050;28;20055;-67
2022/02/16 01:20:17;;;;;;;68.40;37.45;;;;;;;;;;6303986;28;20110;-67
2022/02/16 01:23:19;;;;;;;67.45;37.60;;;;;;;;;;6304160;28;20037;-67
2022/02/16 01:26:23;;;;;;;65.50;37.95;;;;;;;;;;6302657;28;20079;-67
2022/02/16 01:29:24;;;;;;;66.97;37.08;;;;;;;;;;6303829;28;20491;-68
2022/02/16 01:32:26;;;;;;;69.22;38.85;;;;;;;;;;6304198;28;20689;-67
2022/02/16 01:35:28;;;;;;;66.65;38.30;;;;;;;;;;6297928;28;20059;-66
2022/02/16 01:38:29;;;;;;;69.95;38.47;;;;;;;;;;6305349;28;20087;-66
2022/02/16 01:41:32;;;;;;;67.53;36.10;;;;;;;;;;6302615;28;20076;-67
2022/02/16 01:44:34;;;;;;;68.28;37.60;;;;;;;;;;6309710;28;20650;-67
2022/02/16 01:47:37;;;;;;;82.22;43.28;;;;;;;;;;6311633;28;20502;-66
2022/02/16 01:50:39;;;;;;;80.03;40.33;;;;;;;;;;6305658;28;20126;-66
2022/02/16 01:53:41;;;;;;;69.88;38.17;;;;;;;;;;6305567;28;20129;-66
2022/02/16 01:56:47;;;;;;;75.55;39.20;;;;;;;;;;6305162;28;20087;-66
2022/02/16 01:59:50;;;;;;;79.38;41.60;;;;;;;;;;6307161;28;20287;-66
2022/02/16 02:02:51;;;;;;;77.10;40.10;;;;;;;;;;6307153;28;20058;-67
2022/02/16 02:05:53;;;;;;;77.63;41.15;;;;;;;;;;6301855;28;20139;-67
2022/02/16 02:08:54;;;;;;;69.18;38.80;;;;;;;;;;6306047;28;20190;-67
2022/02/16 02:11:57;;;;;;;69.55;37.22;;;;;;;;;;6305592;28;20064;-69
2022/02/16 02:14:59;;;;;;;68.28;36.35;;;;;;;;;;6305685;28;20064;-67
2022/02/16 02:18:00;;;;;;;76.40;40.70;;;;;;;;;;6305843;28;20894;-66
2022/02/16 02:21:03;;;;;;;73.18;38.80;;;;;;;;;;6310823;28;20408;-67
2022/02/16 02:24:06;;;;;;;73.47;36.95;;;;;;;;;;6309629;28;20134;-66
2022/02/16 02:27:07;;;;;;;73.05;38.78;;;;;;;;;;6307609;28;20121;-66
2022/02/16 02:30:10;;;;;;;80.00;39.38;;;;;;;;;;6308563;28;20141;-65
2022/02/16 02:33:11;;;;;;;69.47;38.22;;;;;;;;;;6306776;28;20165;-66
2022/02/16 02:36:14;;;;;;;82.30;40.72;;;;;;;;;;6309254;28;20127;-66
2022/02/16 02:39:16;;;;;;;73.90;39.05;;;;;;;;;;6306699;28;20430;-65
2022/02/16 02:42:17;;;;;;;74.30;38.78;;;;;;;;;;6304710;28;20518;-66
2022/02/16 02:45:19;;;;;;;75.75;39.28;;;;;;;;;;6310631;28;20067;-65
2022/02/16 02:48:21;;;;;;;74.00;39.33;;;;;;;;;;6310862;28;20102;-67
2022/02/16 02:51:24;;;;;;;75.22;38.58;;;;;;;;;;6309257;28;20127;-65
2022/02/16 02:54:26;;;;;;;78.22;39.45;;;;;;;;;;6309614;28;20041;-65
2022/02/16 02:57:28;;;;;;;73.88;38.63;;;;;;;;;;6307703;28;20131;-66
2022/02/16 03:00:29;;;;;;;80.13;38.90;;;;;;;;;;6306823;28;20132;-65
2022/02/16 03:03:31;;;;;;;76.45;39.25;;;;;;;;;;6308922;28;20116;-65
2022/02/16 03:06:34;;;;;;;80.30;40.60;;;;;;;;;;6313380;28;20507;-67
2022/02/16 03:09:35;;;;;;;75.75;39.00;;;;;;;;;;6305641;28;20437;-65
2022/02/16 03:12:37;;;;;;;73.70;39.05;;;;;;;;;;6305592;28;20194;-65
2022/02/16 03:15:38;;;;;;;80.63;39.30;;;;;;;;;;6302021;28;20087;-65
2022/02/16 03:18:40;;;;;;;78.13;38.80;;;;;;;;;;6300314;28;20133;-65
2022/02/16 03:21:43;;;;;;;79.78;40.70;;;;;;;;;;6305831;28;20113;-65
2022/02/16 03:24:44;;;;;;;79.97;41.05;;;;;;;;;;6307269;28;20115;-65
2022/02/16 03:27:46;;;;;;;77.78;40.25;;;;;;;;;;6309566;28;20128;-66
2022/02/16 03:30:47;;;;;;;80.82;39.60;;;;;;;;;;6310820;28;20137;-65
2022/02/16 03:33:49;;;;;;;76.30;38.78;;;;;;;;;;6307663;28;20496;-65
2022/02/16 03:36:52;;;;;;;76.60;39.22;;;;;;;;;;6306867;28;20074;-66
2022/02/16 03:39:54;;;;;;;77.05;39.30;;;;;;;;;;6305891;28;20580;-65
2022/02/16 03:42:56;;;;;;;77.70;39.83;;;;;;;;;;6310714;28;20524;-65
2022/02/16 03:45:57;;;;;;;78.07;39.92;;;;;;;;;;6311008;28;20064;-68
2022/02/16 03:48:59;;;;;;;77.85;41.55;;;;;;;;;;6307533;28;20590;-65
2022/02/16 03:52:02;;;;;;;85.18;41.72;;;;;;;;;;6315082;28;20128;-65
2022/02/16 03:55:04;;;;;;;81.53;40.35;;;;;;;;;;6311278;28;20499;-65
2022/02/16 03:58:05;;;;;;;80.65;41.20;;;;;;;;;;6312796;28;20071;-65
2022/02/16 04:01:07;;;;;;;79.28;39.35;;;;;;;;;;6312846;28;20134;-65
2022/02/16 04:04:08;;;;;;;76.00;40.33;;;;;;;;;;6309775;28;20181;-65
2022/02/16 04:07:11;;;;;;;80.95;41.05;;;;;;;;;;6310866;28;20476;-65
2022/02/16 04:10:13;;;;;;;78.25;39.60;;;;;;;;;;6307525;28;20056;-65
2022/02/16 04:13:14;;;;;;;70.93;39.05;;;;;;;;;;6307652;28;20077;-65
2022/02/16 04:16:16;;;;;;;77.13;40.42;;;;;;;;;;6307702;28;20127;-65
2022/02/16 04:19:18;;;;;;;75.68;40.65;;;;;;;;;;6306417;28;20119;-65
2022/02/16 04:22:20;;;;;;;75.38;38.92;;;;;;;;;;6306508;28;20578;-65
2022/02/16 04:25:22;;;;;;;74.55;38.78;;;;;;;;;;6309288;28;20175;-65
2022/02/16 04:28:25;;;;;;;74.38;38.38;;;;;;;;;;6306805;28;20449;-65
2022/02/16 04:31:27;;;;;;;77.85;39.95;;;;;;;;;;6309545;28;20051;-65
2022/02/16 04:34:29;;;;;;;75.05;40.33;;;;;;;;;;6314291;28;20121;-65
2022/02/16 04:37:32;;;;;;;81.38;40.67;;;;;;;;;;6313735;28;20140;-65
2022/02/16 04:40:33;;;;;;;75.22;40.30;;;;;;;;;;6313825;28;20123;-65
2022/02/16 04:43:35;;;;;;;77.70;41.38;;;;;;;;;;6310479;28;20123;-65
2022/02/16 04:46:36;;;;;;;77.22;40.80;;;;;;;;;;6311219;28;20173;-65
2022/02/16 04:49:38;;;;;;;78.43;40.50;;;;;;;;;;6307104;28;20122;-65
2022/02/16 04:52:41;;;;;;;72.22;40.30;;;;;;;;;;6306811;28;20110;-66
2022/02/16 04:55:43;;;;;;;86.70;44.13;;;;;;;;;;6304128;28;20048;-66
2022/02/16 04:58:44;;;;;;;81.60;41.75;;;;;;;;;;6304303;28;20091;-65
2022/02/16 05:01:46;;;;;;;78.35;39.00;;;;;;;;;;6305111;28;20128;-65
2022/02/16 05:04:47;;;;;;;70.72;37.83;;;;;;;;;;6309604;28;20083;-66
2022/02/16 05:07:50;;;;;;;73.05;37.17;;;;;;;;;;6317919;28;20509;-65
2022/02/16 05:10:52;;;;;;;73.38;36.50;;;;;;;;;;6306996;28;20044;-66
2022/02/16 05:13:53;;;;;;;72.10;35.55;;;;;;;;;;6314004;28;20118;-66
2022/02/16 05:16:55;;;;;;;70.47;36.08;;;;;;;;;;6312170;28;20081;-65
2022/02/16 05:19:57;;;;;;;72.25;36.28;;;;;;;;;;6309889;28;20043;-65
2022/02/16 05:23:02;;;;;;;74.47;36.33;;;;;;;;;;6308010;28;20086;-65
2022/02/16 05:26:04;;;;;;;76.22;36.22;;;;;;;;;;6307359;28;20126;-65
2022/02/16 05:29:06;;;;;;;78.15;37.60;;;;;;;;;;6306438;28;20507;-66
2022/02/16 05:32:08;;;;;;;78.28;37.85;;;;;;;;;;6302796;28;20044;-65
2022/02/16 05:35:10;;;;;;;77.00;37.85;;;;;;;;;;6305755;28;20131;-65
2022/02/16 05:38:13;;;;;;;83.30;38.67;;;;;;;;;;6303999;28;20626;-65
2022/02/16 05:41:15;;;;;;;80.68;38.67;;;;;;;;;;6305997;28;20123;-65
2022/02/16 05:44:17;;;;;;;82.15;39.55;;;;;;;;;;6317950;28;20049;-66
2022/02/16 05:47:18;;;;;;;82.78;39.80;;;;;;;;;;6311362;28;20044;-65
2022/02/16 05:50:20;;;;;;;88.07;39.40;;;;;;;;;;6314223;28;20186;-66
2022/02/16 05:53:23;;;;;;;84.82;39.33;;;;;;;;;;6307458;28;20067;-65
2022/02/16 05:56:24;;;;;;;90.95;39.33;;;;;;;;;;6309599;28;20071;-66
2022/02/16 05:59:26;;;;;;;87.28;41.35;;;;;;;;;;6308545;28;20503;-66
2022/02/16 06:02:27;;;;;;;85.88;39.80;;;;;;;;;;6308321;28;20550;-66
2022/02/16 06:05:29;;;;;;;85.18;37.90;;;;;;;;;;6304375;28;20550;-66
2022/02/16 06:08:32;;;;;;;87.20;39.55;;;;;;;;;;6308840;28;20127;-65
2022/02/16 06:11:34;;;;;;;80.93;37.70;;;;;;;;;;6304467;28;20118;-67
2022/02/16 06:14:35;;;;;;;83.95;38.78;;;;;;;;;;6304885;28;20052;-66
2022/02/16 06:17:37;;;;;;;86.63;38.65;;;;;;;;;;6316861;28;20071;-66
2022/02/16 06:20:39;;;;;;;86.35;38.88;;;;;;;;;;6312738;28;20131;-66
2022/02/16 06:23:42;;;;;;;87.72;39.67;;;;;;;;;;6308468;28;20072;-69
2022/02/16 06:26:44;;;;;;;85.82;39.95;;;;;;;;;;6303098;28;20074;-68
2022/02/16 06:29:45;;;;;;;84.70;39.13;;;;;;;;;;6307498;28;20048;-68
2022/02/16 06:32:47;;;;;;;84.97;39.58;;;;;;;;;;6305000;28;20131;-69
2022/02/16 06:35:48;;;;;;;84.70;39.80;;;;;;;;;;6303034;28;20413;-68
2022/02/16 06:38:51;;;;;;;89.32;41.03;;;;;;;;;;6301684;28;20074;-68
2022/02/16 06:41:53;;;;;;;84.05;37.58;;;;;;;;;;6298831;28;20060;-68
2022/02/16 06:44:55;;;;;;;80.30;40.38;;;;;;;;;;6299225;28;20105;-68
2022/02/16 06:47:56;;;;;;;85.95;40.63;;;;;;;;;;6300651;28;20127;-68
2022/02/16 06:50:58;;;;;;;85.32;40.05;;;;;;;;;;6302160;28;20126;-67
2022/02/16 06:54:01;;;;;;;82.68;39.25;;;;;;;;;;6308840;28;20110;-68
2022/02/16 06:57:02;;;;;;;82.95;39.20;;;;;;;;;;6306156;28;20087;-69
2022/02/16 07:00:06;;;;;;;83.53;40.35;;;;;;;;;;6301100;28;20044;-68
2022/02/16 07:03:07;;;;;;;84.63;39.87;;;;;;;;;;6308098;28;22760;-66
2022/02/16 07:06:09;;;;;;;83.28;40.00;;;;;;;;;;6314111;28;20169;-67
2022/02/16 07:09:12;;;;;;;84.53;39.45;;;;;;;;;;6309667;28;20051;-68
2022/02/16 07:12:14;;;;;;;89.45;43.22;;;;;;;;;;6310066;28;20075;-67
2022/02/16 07:15:16;;;;;;;79.82;40.35;;;;;;;;;;6306320;28;20047;-67
2022/02/16 07:18:18;;;;;;;92.55;41.13;;;;;;;;;;6305093;28;20554;-68
2022/02/16 07:21:19;;;;;;;87.05;39.63;;;;;;;;;;6308519;28;20067;-68
2022/02/16 07:24:23;;;;;;;83.57;41.38;;;;;;;;;;6304598;28;20048;-66
2022/02/16 07:27:24;;;;;;;83.97;39.45;;;;;;;;;;6310063;28;20170;-67
2022/02/16 07:30:26;;;;;;;91.13;41.40;;;;;;;;;;6309013;28;20118;-67
2022/02/16 07:33:27;;;;;;;89.13;40.50;;;;;;;;;;6305864;28;20131;-68
2022/02/16 07:36:29;;;;;;;93.90;41.78;;;;;;;;;;6310298;28;20123;-67
2022/02/16 07:39:32;;;;;;;85.88;39.95;;;;;;;;;;6303401;28;20181;-68
2022/02/16 07:42:34;;;;;;;84.60;41.25;;;;;;;;;;6304690;28;20128;-68
2022/02/16 07:45:35;;;;;;;85.00;40.60;;;;;;;;;;6308080;28;20128;-68
2022/02/16 07:48:37;;;;;;;85.13;40.10;;;;;;;;;;6308035;28;20075;-68
2022/02/16 07:51:38;;;;;;;84.60;39.60;;;;;;;;;;6305415;28;20152;-67
2022/02/16 07:54:41;;;;;;;82.90;38.90;;;;;;;;;;6303963;28;20130;-67
2022/02/16 07:57:43;;;;;;;77.80;38.00;;;;;;;;;;6303764;28;20127;-67
2022/02/16 08:00:45;;;;;;;83.13;38.47;;;;;;;;;;6314564;28;20411;-67
2022/02/16 08:03:46;;;;;;;78.57;39.58;;;;;;;;;;6310452;28;20186;-66
2022/02/16 08:06:49;;;;;;;89.95;40.38;;;;;;;;;;6309946;28;20560;-67
2022/02/16 08:09:52;;;;;;;75.68;39.00;;;;;;;;;;6306618;28;20047;-67
2022/02/16 08:12:57;;;;;;;78.50;36.17;;;;;;;;;;6303477;28;20056;-67
2022/02/16 08:15:58;;;;;;;70.45;36.30;;;;;;;;;;6299536;28;20461;-66
2022/02/16 08:19:00;;;;;;;75.40;36.47;;;;;;;;;;6302725;28;20143;-67
2022/02/16 08:22:02;;;;;;;68.32;35.33;;;;;;;;;;6301357;28;20048;-66
2022/02/16 08:25:07;;;;;;;71.68;35.53;;;;;;;;;;6306430;28;20050;-66
2022/02/16 08:28:09;;;;;;;62.75;33.00;;;;;;;;;;6309072;28;20175;-67
2022/02/16 08:31:10;;;;;;;63.67;32.58;;;;;;;;;;6305136;28;20085;-68
2022/02/16 08:34:12;;;;;;;55.85;31.80;;;;;;;;;;6309357;28;20133;-67
2022/02/16 08:37:13;;;;;;;58.92;32.38;;;;;;;;;;6308143;28;20083;-67
2022/02/16 08:40:17;;;;;;;57.45;31.70;;;;;;;;;;6312202;28;20497;-67
2022/02/16 08:43:18;;;;;;;57.13;32.35;;;;;;;;;;6309710;28;20044;-67
2022/02/16 08:46:20;;;;;;;57.28;32.08;;;;;;;;;;6310077;28;20127;-66
2022/02/16 08:49:21;;;;;;;57.15;30.83;;;;;;;;;;6304731;28;20131;-67
2022/02/16 08:52:23;;;;;;;54.38;30.92;;;;;;;;;;6304631;28;20127;-67
2022/02/16 08:55:26;;;;;;;49.38;30.58;;;;;;;;;;6310181;28;20055;-67
2022/02/16 08:58:28;;;;;;;51.78;31.10;;;;;;;;;;6307010;28;20068;-66
2022/02/16 09:01:31;;;;;;;54.80;31.38;;;;;;;;;;6310401;28;20473;-67
2022/02/16 09:04:33;;;;;;;52.70;31.40;;;;;;;;;;6311488;28;20056;-68
2022/02/16 09:07:34;;;;;;;46.67;30.13;;;;;;;;;;6308057;28;20047;-68
2022/02/16 09:10:37;;;;;;;50.53;30.63;;;;;;;;;;6309067;28;20072;-67
2022/02/16 09:13:39;;;;;;;50.47;29.88;;;;;;;;;;6310454;28;20422;-67
2022/02/16 09:16:40;;;;;;;49.85;28.67;;;;;;;;;;6311191;28;20067;-67
2022/02/16 09:19:42;;;;;;;49.05;29.40;;;;;;;;;;6306996;28;20055;-67
2022/02/16 09:22:44;;;;;;;48.70;27.90;;;;;;;;;;6306990;28;20521;-67
2022/02/16 09:25:47;;;;;;;39.58;27.02;;;;;;;;;;6303484;28;20140;-68
2022/02/16 09:28:49;;;;;;;45.25;27.92;;;;;;;;;;6304100;28;20182;-67
2022/02/16 09:31:51;;;;;;;40.42;26.65;;;;;;;;;;6302193;28;20142;-68
2022/02/16 09:34:54;;;;;;;40.45;26.70;;;;;;;;;;6301575;28;20127;-67
2022/02/16 09:37:56;;;;;;;37.60;25.52;;;;;;;;;;6309562;28;20126;-65
2022/02/16 09:40:59;;;;;;;35.05;25.83;;;;;;;;;;6311422;28;20069;-67
2022/02/16 09:44:01;;;;;;;39.90;27.02;;;;;;;;;;6311830;28;20534;-69
2022/02/16 09:47:04;;;;;;;40.90;26.80;;;;;;;;;;6310695;28;20124;-66
2022/02/16 09:50:07;;;;;;;38.05;25.05;;;;;;;;;;6312759;28;20570;-67
2022/02/16 09:53:08;;;;;;;35.55;22.45;;;;;;;;;;6307646;28;20048;-67
2022/02/16 09:56:11;;;;;;;31.33;21.88;;;;;;;;;;6311336;28;20135;-68
2022/02/16 09:59:13;;;;;;;34.20;23.87;;;;;;;;;;6308281;28;20066;-67
2022/02/16 10:02:16;;;;;;;28.27;20.15;;;;;;;;;;6306905;28;20072;-67
2022/02/16 10:05:19;;;;;;;26.83;19.50;;;;;;;;;;6305519;28;20063;-67
2022/02/16 10:08:39;;;;;;;35.10;25.08;;;;;;;;;;6304268;28;20101;-67
2022/02/16 10:11:51;;;;;;;37.97;25.55;;;;;;;;;;6303201;28;20538;-67
2022/02/16 10:14:53;;;;;;;44.30;27.88;;;;;;;;;;6303171;28;20081;-66
2022/02/16 10:18:05;;;;;;;53.45;33.13;;;;;;;;;;6303733;28;20518;-67
2022/02/16 10:21:08;;;;;;;59.63;35.85;;;;;;;;;;6308944;28;20043;-67
2022/02/16 10:24:20;;;;;;;57.92;35.10;;;;;;;;;;6306618;28;20523;-67
2022/02/16 10:27:23;;;;;;;58.65;36.05;;;;;;;;;;6306423;28;20043;-67
2022/02/16 10:30:25;;;;;;;60.40;37.50;;;;;;;;;;6307785;28;20119;-67
2022/02/16 10:33:28;;;;;;;64.38;39.13;;;;;;;;;;6305541;28;20181;-67
2022/02/16 10:36:31;;;;;;;64.90;38.85;;;;;;;;;;6306334;28;20063;-67
2022/02/16 10:39:33;;;;;;;66.70;38.87;;;;;;;;;;6303791;28;20049;-67
2022/02/16 10:42:37;;;;;;;57.95;35.63;;;;;;;;;;6303342;28;20104;-67
2022/02/16 10:45:47;;;;;;;63.95;38.50;;;;;;;;;;6303147;28;20419;-67
2022/02/16 10:48:49;;;;;;;63.35;38.13;;;;;;;;;;6306468;28;20048;-66
2022/02/16 10:52:03;;;;;;;71.30;40.83;;;;;;;;;;6307998;28;20037;-67
2022/02/16 10:55:06;;;;;;;69.78;42.72;;;;;;;;;;6305022;28;20129;-66
2022/02/16 10:58:11;;;;;;;67.93;41.63;;;;;;;;;;6311441;28;20094;-67
2022/02/16 11:01:13;;;;;;;67.13;40.45;;;;;;;;;;6294760;28;20048;-67
2022/02/16 11:04:16;;;;;;;71.70;42.55;;;;;;;;;;6311837;28;20126;-67
2022/02/16 11:07:19;;;;;;;61.83;38.25;;;;;;;;;;6310555;28;20126;-67
2022/02/16 11:10:21;;;;;;;66.72;38.25;;;;;;;;;;6307351;28;20127;-67
2022/02/16 11:13:26;;;;;;;75.97;41.47;;;;;;;;;;6306492;28;20125;-66
2022/02/16 11:16:27;;;;;;;65.85;40.45;;;;;;;;;;6305263;28;20048;-67
2022/02/16 11:19:32;;;;;;;72.75;39.95;;;;;;;;;;6306990;28;20127;-66
2022/02/16 11:22:46;;;;;;;;;;;;;;;;;;6303770;28;20170;-64
2022/02/16 11:25:48;;;;;;;76.82;45.33;;;;;;;;;;6304726;28;20013;-68
2022/02/16 11:28:51;;;;;;;58.45;37.25;;;;;;;;;;6305347;28;20152;-71
2022/02/16 11:31:53;;;;;;;63.08;39.85;;;;;;;;;;6308499;28;20105;-67
2022/02/16 11:35:15;;;;;;;63.65;39.65;;;;;;;;;;6311487;28;20120;-69
2022/02/16 11:38:19;;;;;;;53.08;32.95;;;;;;;;;;6304652;28;20125;-68
2022/02/16 11:41:22;;;;;;;38.53;25.48;;;;;;;;;;6309531;28;20036;-69
2022/02/16 11:45:00;;;;;;;46.28;31.08;;;;;;;;;;6308754;28;20123;-68
2022/02/16 11:48:01;;;;;;;42.85;31.08;;;;;;;;;;6306818;28;20488;-68
2022/02/16 11:51:33;;;;;;;40.95;27.20;;;;;;;;;;6309251;28;20456;-67
2022/02/16 11:54:55;;;;;;;34.03;21.27;;;;;;;;;;6309410;28;20040;-65
2022/02/16 11:57:59;;;;;;;36.53;23.13;;;;;;;;;;6308621;28;20051;-66
2022/02/16 12:01:08;;;;;;;32.25;22.73;;;;;;;;;;6308491;28;20143;-68
2022/02/16 12:04:09;;;;;;;34.72;25.33;;;;;;;;;;6314813;28;20143;-66
2022/02/16 12:07:24;;;;;;;36.58;24.27;;;;;;;;;;6312539;28;20125;-68
2022/02/16 12:10:26;;;;;;;35.05;24.55;;;;;;;;;;6308598;28;20052;-68
2022/02/16 12:13:32;;;;;;;35.78;24.77;;;;;;;;;;6307621;28;20139;-65
2022/02/16 12:16:42;;;;;;;35.38;25.48;;;;;;;;;;6303857;28;20519;-69
2022/02/16 12:19:44;;;;;;;33.13;24.40;;;;;;;;;;6303216;28;20052;-66
2022/02/16 12:22:46;;;;;;;42.20;28.98;;;;;;;;;;6308729;28;20539;-67
2022/02/16 12:26:02;;;;;;;42.80;31.50;;;;;;;;;;6310735;28;20166;-67
2022/02/16 12:29:06;;;;;;;43.42;31.77;;;;;;;;;;6310296;28;20575;-67
2022/02/16 12:32:09;;;;;;;;;;;;;;;;;;6307750;28;20040;-67
2022/02/16 12:35:10;;;;;;;40.50;28.52;;;;;;;;;;6302590;28;19928;-68
2022/02/16 12:38:12;;;;;;;43.35;29.95;;;;;;;;;;6305405;28;20040;-70
2022/02/16 12:41:17;;;;;;;49.58;31.23;;;;;;;;;;6309814;28;20488;-69
2022/02/16 12:44:21;;;;;;;48.85;32.10;;;;;;;;;;6310692;28;20100;-69
2022/02/16 12:47:23;;;;;;;;;;;;;;;;;;6310060;28;20127;-69
2022/02/16 12:50:29;;;;;;;47.72;31.00;;;;;;;;;;6304248;28;19939;-69
2022/02/16 12:53:37;;;;;;;44.05;29.95;;;;;;;;;;6307012;28;20076;-70
2022/02/16 12:56:41;;;;;;;46.88;29.90;;;;;;;;;;6304972;28;20560;-68
2022/02/16 13:03:03;;;;;;;49.33;32.47;;;;;;;;;;6309292;28;20577;-67
2022/02/16 13:06:06;;;;;;;50.95;33.00;;;;;;;;;;6306103;28;20048;-69
2022/02/16 13:09:09;;;;;;;55.85;33.40;;;;;;;;;;6303822;28;20048;-70
2022/02/16 13:12:11;;;;;;;56.10;32.70;;;;;;;;;;6302321;28;20057;-69
2022/02/16 13:15:15;;;;;;;56.03;34.50;;;;;;;;;;6307455;28;20125;-65
2022/02/16 13:18:30;;;;;;;60.47;36.50;;;;;;;;;;6310963;28;20621;-67
2022/02/16 13:21:31;;;;;;;54.38;36.40;;;;;;;;;;6310385;28;20126;-66
2022/02/16 13:24:33;;;;;;;61.58;37.88;;;;;;;;;;6309578;28;20119;-66
2022/02/16 13:27:45;;;;;;;60.83;36.80;;;;;;;;;;6303859;28;20156;-67
2022/02/16 13:30:48;;;;;;;66.35;37.97;;;;;;;;;;6307255;28;20127;-66
2022/02/16 13:33:59;;;;;;;60.93;37.43;;;;;;;;;;6301248;28;20119;-66
2022/02/16 13:37:07;;;;;;;65.68;36.75;;;;;;;;;;6306259;28;20465;-66
2022/02/16 13:40:10;;;;;;;62.72;37.25;;;;;;;;;;6301916;28;20123;-66
2022/02/16 13:43:13;;;;;;;61.40;36.23;;;;;;;;;;6307198;28;20074;-66
2022/02/16 13:46:15;;;;;;;61.00;36.30;;;;;;;;;;6311143;28;20167;-67
2022/02/16 13:49:20;;;;;;;57.97;35.85;;;;;;;;;;6306140;28;20040;-68
2022/02/16 13:52:30;;;;;;;62.00;34.38;;;;;;;;;;6311760;28;20036;-66
2022/02/16 13:55:45;;;;;;;59.92;34.67;;;;;;;;;;6311439;28;20131;-67
2022/02/16 13:58:46;;;;;;;58.17;33.00;;;;;;;;;;6308108;28;20132;-66
2022/02/16 14:02:05;;;;;;;59.78;34.03;;;;;;;;;;6304609;28;20094;-66
2022/02/16 14:05:08;;;;;;;61.03;34.03;;;;;;;;;;6305811;28;20133;-66
2022/02/16 14:08:10;;;;;;;62.92;34.97;;;;;;;;;;6307267;28;20193;-66
2022/02/16 14:11:22;;;;;;;62.97;36.08;;;;;;;;;;6301693;28;20198;-67
2022/02/16 14:14:23;;;;;;;61.15;34.90;;;;;;;;;;6305548;28;20081;-66
2022/02/16 14:17:25;;;;;;;58.95;35.35;;;;;;;;;;6299718;28;20123;-67
2022/02/16 14:20:28;;;;;;;61.78;34.85;;;;;;;;;;6301414;28;20079;-67
2022/02/16 14:23:30;;;;;;;62.33;34.70;;;;;;;;;;6308839;28;20127;-67
2022/02/16 14:26:32;;;;;;;61.90;35.20;;;;;;;;;;6315280;28;20162;-67
2022/02/16 14:29:34;;;;;;;65.13;35.75;;;;;;;;;;6314110;28;20110;-67
2022/02/16 14:32:36;;;;;;;60.20;35.90;;;;;;;;;;6307085;28;20135;-66
2022/02/16 14:35:39;;;;;;;63.40;34.50;;;;;;;;;;6306364;28;20606;-67
2022/02/16 14:38:40;;;;;;;57.85;34.17;;;;;;;;;;6308373;28;20056;-67
2022/02/16 14:41:42;;;;;;;62.92;36.58;;;;;;;;;;6306756;28;20129;-66
2022/02/16 14:44:44;;;;;;;57.38;34.67;;;;;;;;;;6306994;28;20078;-66
2022/02/16 14:47:48;;;;;;;59.20;34.00;;;;;;;;;;6303761;28;20109;-66
2022/02/16 14:50:51;;;;;;;60.22;33.50;;;;;;;;;;6304535;28;20535;-66
2022/02/16 14:53:53;;;;;;;59.78;33.05;;;;;;;;;;6302426;28;20044;-66
2022/02/16 14:56:56;;;;;;;58.53;32.40;;;;;;;;;;6302684;28;20571;-66
2022/02/16 14:59:57;;;;;;;55.92;33.70;;;;;;;;;;6309758;28;20047;-67
2022/02/16 15:02:59;;;;;;;59.15;33.35;;;;;;;;;;6310416;28;20408;-66
2022/02/16 15:06:02;;;;;;;53.40;31.38;;;;;;;;;;6310572;28;20055;-67
2022/02/16 15:09:04;;;;;;;56.25;33.33;;;;;;;;;;6309421;28;20051;-67
2022/02/16 15:12:06;;;;;;;54.65;31.52;;;;;;;;;;6304673;28;20070;-67
2022/02/16 15:15:08;;;;;;;54.33;31.85;;;;;;;;;;6305817;28;20608;-66
2022/02/16 15:18:09;;;;;;;58.53;32.95;;;;;;;;;;6305762;28;20048;-66
2022/02/16 15:21:12;;;;;;;56.88;31.92;;;;;;;;;;6301032;28;20171;-67
2022/02/16 15:24:14;;;;;;;53.85;31.23;;;;;;;;;;6306217;28;20704;-67
2022/02/16 15:27:15;;;;;;;53.33;30.73;;;;;;;;;;6305058;28;20197;-66
2022/02/16 15:30:17;;;;;;;53.85;29.27;;;;;;;;;;6306709;28;20080;-67
2022/02/16 15:33:18;;;;;;;57.20;31.42;;;;;;;;;;6302905;28;20129;-65
2022/02/16 15:36:22;;;;;;;55.65;32.47;;;;;;;;;;6309146;28;20053;-66
2022/02/16 15:39:23;;;;;;;57.78;31.83;;;;;;;;;;6315200;28;20085;-66
2022/02/16 15:42:25;;;;;;;51.90;30.23;;;;;;;;;;6308726;28;20044;-67
2022/02/16 15:45:27;;;;;;;55.88;30.08;;;;;;;;;;6311299;28;20105;-66
2022/02/16 15:48:33;;;;;;;50.65;30.60;;;;;;;;;;6310427;28;20119;-67
2022/02/16 15:51:37;;;;;;;53.72;31.75;;;;;;;;;;6307306;28;20047;-67
2022/02/16 15:54:38;;;;;;;56.10;31.77;;;;;;;;;;6303183;28;20057;-66
2022/02/16 15:57:40;;;;;;;57.45;31.98;;;;;;;;;;6306706;28;20193;-66
2022/02/16 16:00:41;;;;;;;54.80;30.75;;;;;;;;;;6304751;28;20056;-66
2022/02/16 16:03:45;;;;;;;60.47;32.38;;;;;;;;;;6304505;28;20067;-65
2022/02/16 16:06:48;;;;;;;52.72;30.48;;;;;;;;;;6307136;28;20044;-67
2022/02/16 16:09:50;;;;;;;55.17;31.50;;;;;;;;;;6303938;28;20498;-67
2022/02/16 16:12:52;;;;;;;58.42;32.67;;;;;;;;;;6304786;28;20449;-66
2022/02/16 16:15:53;;;;;;;55.25;31.38;;;;;;;;;;6306778;28;20184;-68
2022/02/16 16:18:55;;;;;;;57.13;32.15;;;;;;;;;;6306492;28;20135;-65
2022/02/16 16:21:58;;;;;;;64.45;33.47;;;;;;;;;;6303887;28;20139;-66
2022/02/16 16:25:01;;;;;;;58.67;31.75;;;;;;;;;;6307055;28;20048;-66
2022/02/16 16:28:02;;;;;;;61.53;31.98;;;;;;;;;;6309763;28;20174;-67
2022/02/16 16:31:04;;;;;;;57.08;32.10;;;;;;;;;;6305585;28;20123;-68
2022/02/16 16:34:06;;;;;;;58.72;31.80;;;;;;;;;;6301929;28;20105;-67
2022/02/16 16:37:09;;;;;;;58.85;31.35;;;;;;;;;;6303091;28;20127;-67
2022/02/16 16:40:12;;;;;;;58.50;31.83;;;;;;;;;;6302756;28;20136;-66
2022/02/16 16:43:13;;;;;;;63.58;32.45;;;;;;;;;;6304699;28;20093;-68
2022/02/16 16:46:15;;;;;;;61.78;32.33;;;;;;;;;;6306128;28;20072;-65
2022/02/16 16:49:17;;;;;;;61.55;31.75;;;;;;;;;;6306812;28;20198;-66
2022/02/16 16:52:20;;;;;;;61.20;31.00;;;;;;;;;;6305976;28;20130;-66
2022/02/16 16:55:21;;;;;;;56.58;30.63;;;;;;;;;;6303675;28;20048;-67
2022/02/16 16:58:23;;;;;;;57.38;32.08;;;;;;;;;;6304116;28;20489;-65
2022/02/16 17:01:25;;;;;;;61.53;32.15;;;;;;;;;;6302341;28;20048;-67
2022/02/16 17:04:26;;;;;;;60.70;31.20;;;;;;;;;;6308394;28;20139;-66
2022/02/16 17:07:29;;;;;;;57.25;31.45;;;;;;;;;;6305231;28;20048;-66
2022/02/16 17:10:31;;;;;;;54.83;31.67;;;;;;;;;;6307187;28;20139;-67
2022/02/16 17:13:33;;;;;;;59.83;31.33;;;;;;;;;;6301584;28;20044;-68
2022/02/16 17:16:34;;;;;;;59.33;32.25;;;;;;;;;;6299280;28;20175;-66
2022/02/16 17:19:36;;;;;;;60.10;32.13;;;;;;;;;;6307507;28;20048;-67
2022/02/16 17:22:40;;;;;;;63.40;31.65;;;;;;;;;;6308908;28;20167;-66
2022/02/16 17:25:42;;;;;;;60.40;32.05;;;;;;;;;;6309288;28;20048;-66
2022/02/16 17:28:44;;;;;;;63.30;33.28;;;;;;;;;;6308002;28;20513;-67
2022/02/16 17:31:45;;;;;;;60.63;32.50;;;;;;;;;;6306784;28;20514;-66
2022/02/16 17:34:47;;;;;;;63.85;33.45;;;;;;;;;;6304025;28;20577;-67
2022/02/16 17:37:50;;;;;;;55.03;30.95;;;;;;;;;;6303084;28;20500;-67
2022/02/16 17:40:54;;;;;;;59.55;32.38;;;;;;;;;;6302883;28;20087;-68
2022/02/16 17:44:41;;;;;;;59.05;31.40;;;;;;;;;;6306525;28;20048;-67
2022/02/16 17:47:21;;;;;;;57.25;31.80;;;;;;;;;;6306262;28;20044;-66
2022/02/16 17:50:22;;;;;;;61.65;31.45;;;;;;;;;;6305566;28;20123;-67